Ankara, Turkey

5:00 PM EEST on October 23, 2014 (GMT +0300)
Esenboga | Change Station
CLOSE
Current Station
Airport
Location: Ankara,
Elevation: 3114 ft
Nearby Weather Stations

Elev 3114 ft 40.13 °N, 33.00 °E | Updated 40 minutes ago

Mostly Cloudy
Mostly Cloudy
66 °F
Feels Like 66 °F
N
9
Wind Variable Wind from South

Today
High -- | Low -- °F
--% Chance of Precip.
Yesterday
High -- | Low -- °F
Precip. -- in
7:06 AM 5:57 PM
Waning Crescent, 0% visible
Pressure 29.92 in
Visibility 6.2 miles
Clouds Scattered Clouds 4000 ft
Mostly Cloudy 10000 ft
Dew Point 43 °F
Humidity 43%
Rainfall 0.00 in
Snow Depth Not available.
UV 1 out of 12
Pollen Not available.
Air Quality Not available.
Flu Activity Not available.
METAR LTAC 231320Z 18008KT 9999 SCT040 BKN100 19/06 Q1013 NOSIG

More Conditions Fewer Conditions

Pressure 29.92 in
Visibility 6.2 miles
Clouds Scattered Clouds 4000 ft
Mostly Cloudy 10000 ft
Dew Point 43 °F
Humidity 43%
Rainfall 0.00 in
Snow Depth Not available.
UV 1 out of 12
Pollen Not available.
Air Quality Not available.
Flu Activity Not available.
METAR LTAC 231320Z 18008KT 9999 SCT040 BKN100 19/06 Q1013 NOSIG

More Conditions Fewer Conditions

10-Day Weather Forecast

Almanac

Astronomy

Oct. 23, 2014 Rise Set
Actual Time 7:06 AM EEST 5:57 PM EEST
Civil Twilight 6:39 AM EEST 6:24 PM EEST
Nautical Twilight 6:07 AM EEST 6:56 PM EEST
Astronomical Twilight 5:36 AM EEST 7:27 PM EEST
Moon 6:26 AM EEST 5:46 PM EEST
Length of Visible Light 11h 45m
Length of Day
10h 50m
Tomorrow will be 2m 28s shorter.
Waning Crescent, 0% of the Moon is Illuminated
Today
Waning Crescent
Oct 23
New
Oct 30
First Quarter
Nov 6
Full
Nov 14
Last Quarter

Yesterday's Extremes

Country Highs Country Lows

Community

WunderPhotos

Upload Photos

1,764,247 photos uploaded!

Nearby

Snow Depth

Not available.

Earthquake Activity

City Distance Mag. Time & Date
No recent earthquake activity has been reported nearby.
Minimum magnitude displayed is 2.5.

Coastal Water Temperatures

Place Temperature
No Stations Reporting

Nearby Weather Stations